createdAt,value
2023-07-25T00:01:24.699Z,3.95
2023-07-25T00:03:17.519Z,3.90
2023-07-25T00:05:13.634Z,3.60
2023-07-25T00:07:09.473Z,4.05
2023-07-25T00:09:04.844Z,3.30
2023-07-25T00:10:59.910Z,3.60
2023-07-25T00:12:54.516Z,4.10
2023-07-25T00:14:49.938Z,3.83
2023-07-25T00:16:45.108Z,3.50
2023-07-25T00:18:40.519Z,3.47
2023-07-25T00:20:35.616Z,3.42
2023-07-25T00:22:30.641Z,3.30
2023-07-25T00:24:28.804Z,3.60
2023-07-25T00:26:23.904Z,3.65
2023-07-25T00:28:23.645Z,3.78
2023-07-25T00:30:18.974Z,3.30
2023-07-25T00:32:11.755Z,3.60
2023-07-25T00:34:07.921Z,3.70
2023-07-25T00:36:03.751Z,3.60
2023-07-25T00:37:58.822Z,3.40
2023-07-25T00:39:58.505Z,3.10
2023-07-25T00:41:54.140Z,3.78
2023-07-25T00:43:46.542Z,3.60
2023-07-25T00:45:42.025Z,3.72
2023-07-25T00:47:37.286Z,3.22
2023-07-25T00:49:30.874Z,3.70
2023-07-25T00:51:26.793Z,3.55
2023-07-25T00:53:22.399Z,3.70
2023-07-25T00:55:20.876Z,3.60
2023-07-25T00:57:13.851Z,3.47
2023-07-25T00:59:09.282Z,3.53
2023-07-25T01:01:06.523Z,4.00
2023-07-25T01:03:01.985Z,3.97
2023-07-25T01:04:57.506Z,3.72
2023-07-25T01:06:53.983Z,4.03
2023-07-25T01:08:52.633Z,3.83
2023-07-25T01:10:50.592Z,3.53
2023-07-25T01:12:46.275Z,4.00
2023-07-25T01:14:41.061Z,3.78
2023-07-25T01:16:37.307Z,3.78
2023-07-25T01:18:33.061Z,4.30
2023-07-25T01:20:28.959Z,4.25
2023-07-25T01:22:26.602Z,4.13
2023-07-25T01:24:26.492Z,3.80
2023-07-25T01:26:21.953Z,3.60
2023-07-25T01:28:14.937Z,4.35
2023-07-25T01:30:11.697Z,3.90
2023-07-25T01:32:05.470Z,3.85
2023-07-25T01:34:00.663Z,4.18
2023-07-25T01:35:55.790Z,3.90
2023-07-25T01:37:51.264Z,3.72
2023-07-25T01:39:49.628Z,4.22
2023-07-25T01:41:46.681Z,4.28
2023-07-25T01:43:41.747Z,4.18
2023-07-25T01:45:36.856Z,4.43
2023-07-25T01:47:29.777Z,4.55
2023-07-25T01:49:24.967Z,4.28
2023-07-25T01:51:20.478Z,4.40
2023-07-25T01:53:15.472Z,3.95
2023-07-25T01:55:11.213Z,4.72
2023-07-25T01:57:07.034Z,4.63
2023-07-25T01:59:02.388Z,5.13
2023-07-25T02:00:57.985Z,4.50
2023-07-25T02:02:53.180Z,5.00
2023-07-25T02:04:48.282Z,5.18
2023-07-25T02:06:43.832Z,5.53
2023-07-25T02:08:36.432Z,5.00
2023-07-25T02:10:34.043Z,5.55
2023-07-25T02:12:29.986Z,5.65
2023-07-25T02:14:25.166Z,5.85
2023-07-25T02:16:18.022Z,5.35
2023-07-25T02:18:13.060Z,5.32
2023-07-25T02:20:07.491Z,5.32
2023-07-25T02:22:02.838Z,5.72
2023-07-25T02:23:55.356Z,6.38
2023-07-25T02:25:52.966Z,5.90
2023-07-25T02:27:48.401Z,5.80
2023-07-25T02:29:43.479Z,5.30
2023-07-25T02:31:38.588Z,5.47
2023-07-25T02:33:31.442Z,5.53
2023-07-25T02:35:26.513Z,4.80
2023-07-25T02:37:21.694Z,4.72
2023-07-25T02:39:17.090Z,4.88
2023-07-25T02:41:14.870Z,5.05
2023-07-25T02:43:11.295Z,5.40
2023-07-25T02:45:06.608Z,5.45
2023-07-25T02:47:01.772Z,5.47
2023-07-25T02:48:57.225Z,5.30
2023-07-25T02:50:49.705Z,4.65
2023-07-25T02:52:45.463Z,5.05
2023-07-25T02:54:40.527Z,5.18
2023-07-25T02:56:38.227Z,5.93
2023-07-25T02:58:31.044Z,5.15
2023-07-25T03:00:26.512Z,5.78
2023-07-25T03:02:21.983Z,5.45
2023-07-25T03:04:17.062Z,5.05
2023-07-25T03:06:13.196Z,5.53
2023-07-25T03:08:08.615Z,5.32
2023-07-25T03:10:01.144Z,5.07
2023-07-25T03:12:02.331Z,4.97
2023-07-25T03:13:58.161Z,4.88
2023-07-25T03:15:53.569Z,4.55
2023-07-25T03:17:48.660Z,5.18
2023-07-25T03:19:41.556Z,4.65
2023-07-25T03:21:36.664Z,4.90
2023-07-25T03:23:31.745Z,5.07
2023-07-25T03:25:27.173Z,5.80
2023-07-25T03:27:25.180Z,5.28
2023-07-25T03:29:20.850Z,4.88
2023-07-25T03:31:16.152Z,4.88
2023-07-25T03:33:11.863Z,5.05
2023-07-25T03:35:08.062Z,5.03
2023-07-25T03:37:03.848Z,4.72
2023-07-25T03:38:59.165Z,4.57
2023-07-25T03:40:55.032Z,4.38
2023-07-25T03:42:50.382Z,4.40
2023-07-25T03:44:46.035Z,4.82
2023-07-25T03:46:38.786Z,4.40
2023-07-25T03:48:35.969Z,4.57
2023-07-25T03:50:32.086Z,4.47
2023-07-25T03:52:28.539Z,4.50
2023-07-25T03:54:24.888Z,4.47
2023-07-25T03:56:20.219Z,4.57
2023-07-25T03:58:18.694Z,4.15
2023-07-25T04:00:15.761Z,4.57
2023-07-25T04:02:11.822Z,4.50
2023-07-25T04:04:04.949Z,4.47
2023-07-25T04:06:00.785Z,4.75
2023-07-25T04:07:56.134Z,4.18
2023-07-25T04:09:49.321Z,4.68
2023-07-25T04:11:44.792Z,4.28
2023-07-25T04:13:40.582Z,4.40
2023-07-25T04:15:35.957Z,5.15
2023-07-25T04:17:31.767Z,4.55
2023-07-25T04:19:24.867Z,4.85
2023-07-25T04:21:20.681Z,4.65
2023-07-25T04:23:16.255Z,4.32
2023-07-25T04:25:12.273Z,4.18
2023-07-25T04:27:08.675Z,4.75
2023-07-25T04:29:04.424Z,3.97
2023-07-25T04:30:59.797Z,4.30
2023-07-25T04:32:55.708Z,4.85
2023-07-25T04:34:51.239Z,4.07
2023-07-25T04:36:47.052Z,4.70
2023-07-25T04:38:39.864Z,4.13
2023-07-25T04:40:35.527Z,4.20
2023-07-25T04:42:30.962Z,4.28
2023-07-25T04:44:29.273Z,4.60
2023-07-25T04:46:24.728Z,4.32
2023-07-25T04:48:17.828Z,4.03
2023-07-25T04:50:13.769Z,4.47
2023-07-25T04:52:07.604Z,3.92
2023-07-25T04:54:03.043Z,4.85
2023-07-25T04:55:58.781Z,4.00
2023-07-25T04:57:54.558Z,4.30
2023-07-25T04:59:52.937Z,4.43
2023-07-25T05:01:48.328Z,4.28
2023-07-25T05:03:44.210Z,4.57
2023-07-25T05:05:37.153Z,4.40
2023-07-25T05:07:33.010Z,4.40
2023-07-25T05:09:28.372Z,4.38
2023-07-25T05:11:24.126Z,4.05
2023-07-25T05:13:19.446Z,4.20
2023-07-25T05:15:14.844Z,4.22
2023-07-25T05:17:10.584Z,3.90
2023-07-25T05:19:05.970Z,4.40
2023-07-25T05:21:01.005Z,4.18
2023-07-25T05:22:56.356Z,3.83
2023-07-25T05:24:51.564Z,4.63
2023-07-25T05:26:47.067Z,4.00
2023-07-25T05:28:42.428Z,4.68
2023-07-25T05:30:40.598Z,4.55
2023-07-25T05:32:37.506Z,4.00
2023-07-25T05:34:33.411Z,4.03
2023-07-25T05:36:28.547Z,3.90
2023-07-25T05:38:24.034Z,4.28
2023-07-25T05:40:19.078Z,3.47
2023-07-25T05:42:11.901Z,3.78
2023-07-25T05:44:07.661Z,3.65
2023-07-25T05:46:05.369Z,3.70
2023-07-25T05:47:58.332Z,3.70
2023-07-25T05:49:54.104Z,3.33
2023-07-25T05:51:49.468Z,3.90
2023-07-25T05:53:44.527Z,3.45
2023-07-25T05:55:39.943Z,3.50
2023-07-25T05:57:35.037Z,3.70
2023-07-25T05:59:30.501Z,3.00
2023-07-25T06:01:25.675Z,3.40
2023-07-25T06:03:21.239Z,3.38
2023-07-25T06:05:16.345Z,3.60
2023-07-25T06:07:11.780Z,3.10
2023-07-25T06:09:06.954Z,3.10
2023-07-25T06:11:02.468Z,3.45
2023-07-25T06:12:57.568Z,2.95
2023-07-25T06:14:53.450Z,3.25
2023-07-25T06:16:48.979Z,2.72
2023-07-25T06:18:44.007Z,3.05
2023-07-25T06:20:36.879Z,3.05
2023-07-25T06:22:31.991Z,3.15
2023-07-25T06:24:27.522Z,3.13
2023-07-25T06:26:22.642Z,2.47
2023-07-25T06:28:18.996Z,2.80
2023-07-25T06:30:11.874Z,3.05
2023-07-25T06:32:10.885Z,2.58
2023-07-25T06:34:03.359Z,2.75
2023-07-25T06:35:58.792Z,3.00
2023-07-25T06:37:53.891Z,3.30
2023-07-25T06:39:46.751Z,3.05
2023-07-25T06:41:41.882Z,2.67
2023-07-25T06:43:34.421Z,2.70
2023-07-25T06:45:30.205Z,2.70
2023-07-25T06:47:25.784Z,3.30
2023-07-25T06:49:21.280Z,2.75
2023-07-25T06:51:16.656Z,2.70
2023-07-25T06:53:12.775Z,2.50
2023-07-25T06:55:10.128Z,2.65
2023-07-25T06:57:08.540Z,2.40
2023-07-25T06:59:03.642Z,2.92
2023-07-25T07:00:59.578Z,2.40
2023-07-25T07:02:57.745Z,2.20
2023-07-25T07:04:53.303Z,3.00
2023-07-25T07:06:48.508Z,2.00
2023-07-25T07:08:43.932Z,2.65
2023-07-25T07:10:36.640Z,2.50
2023-07-25T07:12:32.087Z,2.40
2023-07-25T07:14:27.524Z,2.33
2023-07-25T07:16:23.551Z,2.22
2023-07-25T07:18:22.086Z,2.28
2023-07-25T07:20:15.171Z,1.63
2023-07-25T07:22:10.661Z,2.15
2023-07-25T07:24:06.678Z,2.08
2023-07-25T07:26:02.243Z,2.60
2023-07-25T07:27:55.511Z,2.05
2023-07-25T07:29:51.070Z,2.50
2023-07-25T07:31:46.813Z,2.05
2023-07-25T07:39:58.648Z,1.98
2023-07-25T07:41:54.470Z,2.22
2023-07-25T07:43:49.930Z,2.45
2023-07-25T07:45:45.733Z,1.98
2023-07-25T07:47:41.376Z,2.00
2023-07-25T07:49:39.935Z,2.38
2023-07-25T07:51:35.062Z,2.03
2023-07-25T07:53:30.730Z,2.97
2023-07-25T07:55:26.109Z,2.45
2023-07-25T07:57:18.933Z,2.05
2023-07-25T07:59:14.152Z,2.33
2023-07-25T08:01:17.336Z,2.00
2023-07-25T08:03:12.374Z,2.13
2023-07-25T08:05:11.521Z,2.20
2023-07-25T08:07:08.231Z,2.42
2023-07-25T08:09:03.715Z,2.30
2023-07-25T08:10:56.208Z,2.35
2023-07-25T08:12:51.355Z,2.50
2023-07-25T08:14:46.813Z,2.50
2023-07-25T08:16:42.017Z,2.00
2023-07-25T08:18:37.632Z,2.50
2023-07-25T08:20:35.625Z,2.97
2023-07-25T08:22:31.038Z,2.50
2023-07-25T08:24:26.296Z,2.00
2023-07-25T08:26:19.269Z,2.88
2023-07-25T08:28:14.434Z,2.00
2023-07-25T08:30:11.507Z,2.00
2023-07-25T08:32:04.709Z,2.10
2023-07-25T08:34:00.331Z,2.50
2023-07-25T08:35:56.334Z,2.30
2023-07-25T08:37:51.685Z,2.00
2023-07-25T08:39:47.242Z,1.77
2023-07-25T08:41:46.963Z,2.00
2023-07-25T08:43:40.720Z,1.58
2023-07-25T08:45:37.447Z,1.90
2023-07-25T08:47:35.145Z,2.13
2023-07-25T08:49:34.566Z,2.33
2023-07-25T08:51:36.344Z,2.25
2023-07-25T08:53:29.882Z,2.25
2023-07-25T08:55:25.384Z,2.10
2023-07-25T08:57:20.037Z,2.00
2023-07-25T08:59:16.551Z,1.60
2023-07-25T09:01:11.954Z,2.20
2023-07-25T09:03:08.120Z,1.75
2023-07-25T09:05:03.954Z,1.95
2023-07-25T09:07:03.703Z,1.98
2023-07-25T09:08:58.746Z,1.77
2023-07-25T09:10:56.239Z,1.63
2023-07-25T09:12:52.975Z,1.80
2023-07-25T09:14:48.252Z,1.73
2023-07-25T09:16:43.987Z,1.70
2023-07-25T09:18:39.139Z,1.63
2023-07-25T09:20:34.298Z,1.65
2023-07-25T09:22:34.183Z,1.63
2023-07-25T09:24:35.770Z,1.83
2023-07-25T09:26:32.952Z,2.30
2023-07-25T09:28:28.086Z,1.80
2023-07-25T09:30:23.491Z,2.90
2023-07-25T09:32:20.385Z,1.70
2023-07-25T09:34:20.241Z,1.80
2023-07-25T09:36:15.762Z,1.63
2023-07-25T09:38:13.356Z,1.75
2023-07-25T09:40:13.153Z,1.80
2023-07-25T09:42:11.025Z,2.08
2023-07-25T09:44:06.905Z,1.80
2023-07-25T09:46:01.993Z,1.70
2023-07-25T09:47:57.519Z,2.20
2023-07-25T09:49:52.081Z,1.67
2023-07-25T09:52:00.822Z,1.60
2023-07-25T09:53:59.084Z,1.80
2023-07-25T09:55:54.879Z,1.95
2023-07-25T09:57:50.549Z,1.92
2023-07-25T09:59:43.794Z,1.98
2023-07-25T10:01:41.377Z,1.75
2023-07-25T10:03:37.391Z,1.98
2023-07-25T10:05:30.210Z,1.88
2023-07-25T10:07:27.247Z,1.95
2023-07-25T10:09:25.496Z,1.67
2023-07-25T10:11:21.085Z,1.90
2023-07-25T10:13:18.556Z,1.50
2023-07-25T10:15:15.873Z,1.70
2023-07-25T10:17:10.345Z,1.70
2023-07-25T10:19:09.157Z,1.40
2023-07-25T10:21:04.534Z,1.48
2023-07-25T10:23:10.784Z,1.55
2023-07-25T10:25:12.526Z,1.63
2023-07-25T10:27:12.484Z,1.98
2023-07-25T10:29:42.828Z,1.50
2023-07-25T10:31:38.374Z,1.83
2023-07-25T10:33:40.804Z,1.80
2023-07-25T10:35:55.977Z,1.50
2023-07-25T10:37:48.501Z,1.70
2023-07-25T10:39:43.968Z,1.85
2023-07-25T10:41:41.671Z,2.10
2023-07-25T10:43:57.238Z,1.83
2023-07-25T10:45:57.266Z,1.70
2023-07-25T10:47:51.150Z,1.77
2023-07-25T10:50:01.288Z,1.85
2023-07-25T10:51:59.605Z,1.75
2023-07-25T10:54:18.938Z,1.98
2023-07-25T10:56:16.642Z,1.88
2023-07-25T10:58:15.506Z,1.77
2023-07-25T11:00:12.643Z,1.40
2023-07-25T11:02:32.067Z,1.70
2023-07-25T11:04:30.387Z,1.63
2023-07-25T11:06:41.424Z,1.42
2023-07-25T11:08:37.029Z,1.92
2023-07-25T11:10:33.011Z,1.77
2023-07-25T11:12:28.168Z,1.70
2023-07-25T11:14:26.219Z,1.80
2023-07-25T11:16:18.903Z,1.85
2023-07-25T11:18:14.772Z,1.58
2023-07-25T11:20:17.860Z,1.52
2023-07-25T11:22:14.697Z,1.70
2023-07-25T11:24:08.637Z,1.30
2023-07-25T11:26:08.284Z,1.50
2023-07-25T11:28:03.605Z,1.42
2023-07-25T11:30:12.392Z,1.50
2023-07-25T11:32:08.012Z,1.60
2023-07-25T11:34:10.330Z,1.33
2023-07-25T11:36:05.666Z,1.58
2023-07-25T11:38:04.171Z,1.30
2023-07-25T11:39:59.223Z,1.98
2023-07-25T11:41:55.348Z,1.67
2023-07-25T11:43:50.501Z,2.00
2023-07-25T11:45:49.373Z,1.55
2023-07-25T11:47:46.453Z,1.60
2023-07-25T11:49:50.017Z,1.70
2023-07-25T11:51:51.724Z,1.95
2023-07-25T11:53:46.567Z,2.00
2023-07-25T11:55:42.795Z,2.05
2023-07-25T11:57:41.612Z,2.20
2023-07-25T11:59:42.950Z,2.25
2023-07-25T12:01:41.378Z,1.95
2023-07-25T12:03:36.623Z,2.28
2023-07-25T12:05:34.180Z,2.00
2023-07-25T12:07:29.536Z,1.60
2023-07-25T12:09:32.498Z,1.42
2023-07-25T12:11:25.369Z,1.80
2023-07-25T12:13:21.148Z,1.65
2023-07-25T12:15:17.246Z,1.50
2023-07-25T12:17:15.270Z,1.48
2023-07-25T12:19:12.931Z,1.65
2023-07-25T12:21:06.173Z,1.40
2023-07-25T12:23:10.838Z,1.60
2023-07-25T12:25:06.576Z,1.67
2023-07-25T12:27:03.354Z,1.45
2023-07-25T12:28:59.529Z,1.98
2023-07-25T12:30:52.738Z,1.85
2023-07-25T12:32:50.769Z,2.20
2023-07-25T12:34:46.780Z,1.50
2023-07-25T12:36:42.479Z,1.60
2023-07-25T12:38:35.344Z,1.40
2023-07-25T12:40:31.056Z,1.60
2023-07-25T12:42:26.456Z,1.50
2023-07-25T12:44:22.332Z,1.30
2023-07-25T12:46:17.765Z,1.33
2023-07-25T12:48:16.146Z,1.40
2023-07-25T12:50:10.172Z,1.52
2023-07-25T12:52:06.421Z,1.30
2023-07-25T12:54:02.739Z,1.30
2023-07-25T12:55:58.625Z,1.42
2023-07-25T12:57:52.056Z,1.40
2023-07-25T12:59:47.708Z,1.98
2023-07-25T13:01:43.189Z,1.98
2023-07-25T13:03:43.567Z,1.50
2023-07-25T13:05:36.560Z,1.88
2023-07-25T13:07:32.156Z,1.50
2023-07-25T13:09:27.857Z,1.70
2023-07-25T13:11:20.575Z,2.15
2023-07-25T13:13:16.561Z,1.50
2023-07-25T13:15:12.807Z,1.65
2023-07-25T13:17:08.772Z,1.60
2023-07-25T13:19:06.728Z,1.30
2023-07-25T13:21:02.486Z,1.35
2023-07-25T13:22:57.948Z,1.33
2023-07-25T13:24:53.205Z,1.85
2023-07-25T13:26:48.641Z,1.10
2023-07-25T13:28:44.502Z,1.63
2023-07-25T13:30:37.378Z,1.50
2023-07-25T13:32:33.031Z,1.52
2023-07-25T13:34:31.762Z,1.40
2023-07-25T13:36:27.165Z,1.98
2023-07-25T13:38:22.945Z,1.35
2023-07-25T13:40:15.802Z,2.05
2023-07-25T13:42:11.886Z,1.58
2023-07-25T13:44:07.434Z,2.35
2023-07-25T13:46:04.809Z,1.70
2023-07-25T13:48:00.430Z,2.15
2023-07-25T13:49:59.607Z,1.60
2023-07-25T13:51:54.642Z,1.70
2023-07-25T13:53:50.109Z,1.73
2023-07-25T13:55:45.152Z,1.90
2023-07-25T13:57:40.555Z,1.70
2023-07-25T13:59:35.645Z,1.50
2023-07-25T14:01:31.428Z,1.73
2023-07-25T14:03:28.259Z,1.75
2023-07-25T14:05:28.306Z,1.80
2023-07-25T14:07:23.344Z,2.00
2023-07-25T14:09:16.459Z,1.98
2023-07-25T14:11:11.708Z,1.42
2023-07-25T14:13:07.299Z,1.83
2023-07-25T14:15:02.665Z,1.73
2023-07-25T14:16:58.405Z,1.52
2023-07-25T14:18:50.930Z,1.55
2023-07-25T14:20:48.688Z,1.52
2023-07-25T14:22:44.101Z,1.90
2023-07-25T14:24:39.174Z,1.50
2023-07-25T14:26:37.091Z,1.80
2023-07-25T14:28:32.629Z,1.60
2023-07-25T14:30:28.343Z,1.38
2023-07-25T14:32:25.809Z,1.90
2023-07-25T14:34:24.314Z,1.55
2023-07-25T14:36:22.003Z,1.80
2023-07-25T14:38:17.719Z,1.60
2023-07-25T14:40:12.352Z,1.60
2023-07-25T14:42:08.257Z,2.08
2023-07-25T14:44:03.349Z,1.58
2023-07-25T14:45:58.865Z,1.63
2023-07-25T14:47:51.515Z,1.80
2023-07-25T14:49:46.633Z,1.70
2023-07-25T14:51:44.595Z,1.50
2023-07-25T14:53:39.722Z,1.70
2023-07-25T14:55:35.195Z,2.08
2023-07-25T14:57:31.782Z,1.95
2023-07-25T14:59:27.269Z,1.90
2023-07-25T15:01:22.925Z,1.85
2023-07-25T15:03:18.941Z,2.55
2023-07-25T15:05:14.577Z,1.58
2023-07-25T15:07:12.404Z,1.38
2023-07-25T15:09:07.695Z,1.70
2023-07-25T15:11:03.256Z,1.48
2023-07-25T15:12:58.428Z,1.70
2023-07-25T15:14:53.973Z,1.73
2023-07-25T15:16:49.385Z,1.50
2023-07-25T15:18:44.965Z,1.55
2023-07-25T15:20:40.816Z,1.42
2023-07-25T15:22:39.741Z,1.80
2023-07-25T15:24:35.684Z,1.70
2023-07-25T15:26:31.020Z,1.80
2023-07-25T15:28:26.818Z,1.70
2023-07-25T15:30:20.432Z,1.42
2023-07-25T15:32:26.285Z,1.67
2023-07-25T15:34:22.011Z,1.77
2023-07-25T15:36:17.872Z,1.67
2023-07-25T15:38:16.841Z,1.48
2023-07-25T15:40:14.681Z,1.80
2023-07-25T15:42:12.163Z,1.58
2023-07-25T15:44:08.134Z,1.52
2023-07-25T15:46:05.492Z,1.30
2023-07-25T15:48:01.958Z,1.70
2023-07-25T15:49:58.521Z,1.58
2023-07-25T15:51:54.655Z,1.55
2023-07-25T15:53:52.582Z,1.70
2023-07-25T15:55:48.492Z,1.48
2023-07-25T15:57:42.127Z,1.92
2023-07-25T15:59:39.467Z,1.58
2023-07-25T16:01:35.828Z,1.55
2023-07-25T16:03:28.711Z,1.75
2023-07-25T16:05:27.868Z,1.77
2023-07-25T16:07:20.808Z,1.85
2023-07-25T16:09:19.605Z,1.75
2023-07-25T16:11:15.148Z,1.55
2023-07-25T16:13:21.239Z,1.08
2023-07-25T16:15:18.012Z,1.60
2023-07-25T16:17:13.236Z,1.77
2023-07-25T16:19:17.358Z,1.52
2023-07-25T16:21:18.071Z,1.58
2023-07-25T16:23:22.736Z,1.50
2023-07-25T16:25:35.285Z,1.55
2023-07-25T16:27:41.584Z,1.77
2023-07-25T16:29:48.135Z,1.42
2023-07-25T16:31:51.714Z,1.60
2023-07-25T16:33:56.842Z,1.38
2023-07-25T16:35:59.152Z,1.45
2023-07-25T16:38:00.539Z,1.50
2023-07-25T16:40:00.499Z,1.63
2023-07-25T16:42:03.996Z,2.08
2023-07-25T16:44:03.101Z,1.80
2023-07-25T16:46:05.663Z,2.25
2023-07-25T16:48:05.690Z,2.40
2023-07-25T16:50:02.645Z,2.47
2023-07-25T16:51:59.968Z,2.30
2023-07-25T16:53:56.302Z,2.10
2023-07-25T16:55:55.647Z,1.90
2023-07-25T16:57:57.288Z,1.88
2023-07-25T16:59:56.567Z,1.60
2023-07-25T17:01:54.185Z,1.90
2023-07-25T17:03:50.553Z,1.80
2023-07-25T17:05:47.523Z,1.70
2023-07-25T17:07:44.531Z,1.80
2023-07-25T17:09:39.720Z,1.48
2023-07-25T17:11:35.853Z,1.75
2023-07-25T17:13:33.474Z,1.83
2023-07-25T17:15:28.965Z,1.70
2023-07-25T17:17:24.061Z,1.92
2023-07-25T17:19:19.406Z,2.00
2023-07-25T17:21:18.375Z,1.83
2023-07-25T17:23:19.112Z,1.83
2023-07-25T17:25:11.551Z,1.90
2023-07-25T17:27:07.644Z,1.90
2023-07-25T17:29:05.913Z,2.17
2023-07-25T17:30:58.840Z,1.83
2023-07-25T17:32:55.042Z,2.35
2023-07-25T17:34:50.590Z,2.05
2023-07-25T17:36:45.652Z,2.15
2023-07-25T17:38:40.756Z,1.95
2023-07-25T17:40:36.200Z,2.03
2023-07-25T17:42:31.528Z,1.80
2023-07-25T17:44:29.644Z,2.17
2023-07-25T17:46:24.841Z,2.30
2023-07-25T17:48:21.650Z,2.50
2023-07-25T17:50:14.133Z,2.30
2023-07-25T17:52:10.688Z,1.98
2023-07-25T17:54:05.739Z,1.98
2023-07-25T17:56:01.118Z,2.45
2023-07-25T17:57:53.919Z,2.10
2023-07-25T17:59:51.908Z,2.15
2023-07-25T18:01:47.705Z,1.95
2023-07-25T18:03:40.709Z,2.17
2023-07-25T18:05:36.088Z,2.13
2023-07-25T18:07:31.795Z,2.08
2023-07-25T18:09:27.185Z,2.20
2023-07-25T18:11:23.007Z,2.15
2023-07-25T18:13:21.244Z,1.85
2023-07-25T18:15:19.547Z,1.85
2023-07-25T18:17:14.894Z,1.80
2023-07-25T18:19:10.558Z,1.90
2023-07-25T18:21:07.205Z,2.00
2023-07-25T18:23:04.951Z,2.05
2023-07-25T18:24:57.844Z,2.00
2023-07-25T18:26:53.564Z,2.40
2023-07-25T18:28:49.154Z,2.40
2023-07-25T18:30:47.614Z,2.53
2023-07-25T18:32:43.000Z,2.40
2023-07-25T18:34:38.663Z,2.22
2023-07-25T18:36:31.604Z,2.08
2023-07-25T18:38:27.266Z,2.17
2023-07-25T18:40:22.733Z,2.42
2023-07-25T18:42:18.182Z,2.08
2023-07-25T18:44:13.835Z,2.75
2023-07-25T18:46:09.207Z,2.47
2023-07-25T18:48:04.931Z,2.42
2023-07-25T18:50:00.300Z,2.40
2023-07-25T18:51:56.138Z,2.40
2023-07-25T18:53:51.232Z,2.20
2023-07-25T18:55:44.216Z,2.35
2023-07-25T18:57:39.466Z,2.25
2023-07-25T18:59:32.414Z,2.33
2023-07-25T19:01:30.627Z,2.38
2023-07-25T19:03:29.880Z,2.30
2023-07-25T19:05:25.363Z,2.35
2023-07-25T19:07:19.641Z,2.60
2023-07-25T19:09:14.859Z,2.30
2023-07-25T19:11:07.855Z,2.30
2023-07-25T19:13:03.147Z,1.92
2023-07-25T19:14:58.624Z,3.63
2023-07-25T19:16:56.485Z,2.45
2023-07-25T19:18:52.137Z,2.38
2023-07-25T19:20:47.358Z,2.40
2023-07-25T19:22:42.954Z,2.40
2023-07-25T19:24:38.187Z,1.85
2023-07-25T19:26:34.010Z,1.80
2023-07-25T19:28:29.687Z,1.75
2023-07-25T19:30:25.237Z,2.47
2023-07-25T19:32:23.979Z,2.40
2023-07-25T19:34:16.674Z,2.17
2023-07-25T19:36:11.844Z,1.98
2023-07-25T19:38:04.707Z,2.38
2023-07-25T19:39:59.963Z,1.67
2023-07-25T19:41:55.157Z,2.55
2023-07-25T19:43:48.802Z,2.45
2023-07-25T19:45:45.202Z,2.15
2023-07-25T19:47:42.981Z,1.90
2023-07-25T19:49:38.455Z,2.30
2023-07-25T19:51:33.769Z,2.00
2023-07-25T19:53:31.004Z,2.22
2023-07-25T19:55:23.808Z,1.90
2023-07-25T19:57:18.950Z,1.98
2023-07-25T19:59:14.667Z,1.90
2023-07-25T20:01:10.442Z,1.40
2023-07-25T20:03:08.429Z,1.70
2023-07-25T20:05:04.323Z,1.73
2023-07-25T20:06:59.596Z,1.55
2023-07-25T20:08:55.239Z,1.70
2023-07-25T20:10:50.637Z,1.88
2023-07-25T20:12:45.963Z,1.88
2023-07-25T20:14:41.496Z,1.88
2023-07-25T20:16:37.503Z,1.98
2023-07-25T20:18:35.638Z,1.55
2023-07-25T20:20:30.751Z,1.65
2023-07-25T20:22:26.051Z,2.03
2023-07-25T20:24:19.085Z,1.90
2023-07-25T20:26:15.095Z,1.73
2023-07-25T20:28:10.648Z,1.75
2023-07-25T20:30:05.884Z,1.80
2023-07-25T20:32:02.793Z,1.48
2023-07-25T20:34:02.581Z,1.60
2023-07-25T20:35:58.224Z,1.80
2023-07-25T20:37:56.134Z,2.00
2023-07-25T20:39:51.214Z,1.67
2023-07-25T20:41:47.476Z,1.77
2023-07-25T20:43:39.926Z,2.10
2023-07-25T20:45:35.799Z,3.35
2023-07-25T20:47:31.170Z,2.35
2023-07-25T20:49:27.005Z,3.30
2023-07-25T20:51:22.204Z,1.88
2023-07-25T20:53:17.903Z,1.73
2023-07-25T20:55:10.782Z,2.08
2023-07-25T20:57:06.790Z,2.00
2023-07-25T20:59:02.757Z,2.10
2023-07-25T21:00:58.492Z,1.90
2023-07-25T21:02:51.483Z,2.00
2023-07-25T21:04:50.000Z,2.05
2023-07-25T21:06:45.691Z,1.95
2023-07-25T21:08:41.393Z,1.90
2023-07-25T21:10:36.730Z,1.88
2023-07-25T21:12:29.838Z,1.80
2023-07-25T21:14:25.289Z,1.80
2023-07-25T21:16:21.211Z,2.47
2023-07-25T21:18:16.622Z,1.98
2023-07-25T21:20:16.700Z,1.65
2023-07-25T21:22:12.110Z,1.70
2023-07-25T21:24:08.832Z,2.00
2023-07-25T21:26:04.710Z,1.45
2023-07-25T21:28:02.331Z,1.75
2023-07-25T21:29:59.925Z,1.98
2023-07-25T21:31:55.613Z,2.08
2023-07-25T21:33:48.219Z,1.83
2023-07-25T21:35:46.147Z,1.70
2023-07-25T21:37:41.225Z,1.80
2023-07-25T21:39:36.633Z,1.92
2023-07-25T21:41:29.038Z,2.28
2023-07-25T21:43:24.415Z,1.60
2023-07-25T21:45:19.714Z,2.00
2023-07-25T21:47:15.472Z,1.70
2023-07-25T21:49:08.080Z,2.13
2023-07-25T21:51:06.481Z,1.83
2023-07-25T21:53:01.741Z,1.63
2023-07-25T21:54:57.234Z,1.70
2023-07-25T21:56:52.353Z,2.40
2023-07-25T21:58:47.943Z,1.60
2023-07-25T22:00:42.926Z,1.77
2023-07-25T22:02:38.410Z,1.95
2023-07-25T22:04:33.761Z,2.10
2023-07-25T22:06:30.133Z,1.70
2023-07-25T22:08:25.596Z,2.10
2023-07-25T22:10:20.802Z,1.70
2023-07-25T22:12:16.200Z,1.80
2023-07-25T22:14:11.403Z,1.58
2023-07-25T22:16:07.321Z,2.10
2023-07-25T22:17:59.849Z,1.77
2023-07-25T22:19:54.963Z,1.85
2023-07-25T22:21:50.348Z,1.90
2023-07-25T22:23:45.478Z,1.90
2023-07-25T22:25:40.857Z,1.85
2023-07-25T22:27:37.096Z,2.28
2023-07-25T22:29:32.121Z,1.73
2023-07-25T22:31:27.654Z,1.70
2023-07-25T22:33:22.673Z,1.58
2023-07-25T22:35:18.150Z,1.83
2023-07-25T22:37:15.918Z,1.90
2023-07-25T22:39:11.258Z,1.65
2023-07-25T22:41:06.435Z,2.08
2023-07-25T22:42:59.445Z,1.77
2023-07-25T22:44:54.461Z,1.98
2023-07-25T22:46:49.789Z,1.50
2023-07-25T22:48:44.923Z,1.55
2023-07-25T22:50:40.239Z,1.63
2023-07-25T22:52:37.859Z,1.95
2023-07-25T22:54:33.257Z,1.63
2023-07-25T22:56:28.357Z,1.60
2023-07-25T22:58:24.803Z,1.80
2023-07-25T23:00:17.626Z,1.70
2023-07-25T23:02:13.073Z,1.65
2023-07-25T23:04:05.597Z,1.33
2023-07-25T23:06:03.857Z,2.05
2023-07-25T23:08:01.472Z,1.60
2023-07-25T23:09:56.900Z,2.00
2023-07-25T23:11:51.928Z,1.77
2023-07-25T23:13:44.720Z,1.20
2023-07-25T23:15:44.362Z,1.38
2023-07-25T23:17:39.922Z,1.25
2023-07-25T23:19:32.406Z,1.45
2023-07-25T23:21:28.170Z,1.70
2023-07-25T23:23:26.258Z,1.63
2023-07-25T23:25:21.357Z,1.65
2023-07-25T23:27:16.864Z,1.70
2023-07-25T23:29:13.417Z,1.63
2023-07-25T23:31:08.802Z,1.83
2023-07-25T23:33:01.572Z,1.60
2023-07-25T23:34:57.440Z,1.80
2023-07-25T23:36:50.208Z,1.60
2023-07-25T23:38:48.431Z,1.45
2023-07-25T23:40:44.439Z,1.42
2023-07-25T23:42:40.115Z,1.60
2023-07-25T23:44:35.383Z,1.40
2023-07-25T23:46:31.033Z,1.92
2023-07-25T23:48:27.073Z,1.30
2023-07-25T23:50:22.519Z,1.30
2023-07-25T23:52:15.090Z,1.40
2023-07-25T23:54:13.038Z,1.60
2023-07-25T23:56:09.115Z,1.40
2023-07-25T23:58:04.890Z,1.55
2023-07-25T23:59:57.375Z,1.38
